createdAt,value
2019-02-03T01:09:28.472Z,60.33
2019-02-03T01:19:35.201Z,58.90
2019-02-03T01:22:55.540Z,60.13
2019-02-03T01:26:28.755Z,59.50
2019-02-03T01:29:53.576Z,58.27
2019-02-03T01:33:40.646Z,55.80
2019-02-03T01:37:10.750Z,58.47
2019-02-03T01:40:12.677Z,57.70
2019-02-03T01:43:31.604Z,55.80
2019-02-03T01:46:51.935Z,59.40
2019-02-03T01:49:38.623Z,62.00
2019-02-03T01:52:50.095Z,60.40
2019-02-03T01:55:41.567Z,60.17
2019-02-03T01:59:01.703Z,62.30
2019-02-03T02:01:48.265Z,60.03
2019-02-03T02:05:20.412Z,57.97
2019-02-03T02:09:09.217Z,57.53
2019-02-03T02:11:14.303Z,58.17
2019-02-03T02:17:15.833Z,56.10
2019-02-03T02:20:35.593Z,58.40
2019-02-03T02:23:19.902Z,57.47
2019-02-03T02:26:33.936Z,57.77
2019-02-03T02:30:02.714Z,57.07
2019-02-03T02:36:37.791Z,58.73
2019-02-03T02:40:22.975Z,59.70
2019-02-03T02:43:33.547Z,55.90
2019-02-03T02:46:52.445Z,54.97
2019-02-03T02:49:56.421Z,53.53
2019-02-03T02:52:56.988Z,57.70
2019-02-03T02:55:51.657Z,54.47
2019-02-03T03:02:15.323Z,57.23
2019-02-03T03:05:38.922Z,53.60
2019-02-03T03:15:22.476Z,63.55
2019-02-03T03:18:24.975Z,57.17
2019-02-03T03:21:21.718Z,56.80
2019-02-03T03:24:19.505Z,52.67
2019-02-03T03:27:06.378Z,58.78
2019-02-03T03:29:48.016Z,52.13
2019-02-03T03:32:38.401Z,53.17
2019-02-03T03:35:29.612Z,50.17
2019-02-03T03:38:16.841Z,49.17
2019-02-03T03:48:13.491Z,50.37
2019-02-03T03:50:56.666Z,50.23
2019-02-03T03:53:44.124Z,49.60
2019-02-03T03:56:57.889Z,46.90
2019-02-03T04:00:04.782Z,49.20
2019-02-03T04:02:48.431Z,52.30
2019-02-03T04:05:27.318Z,48.37
2019-02-03T04:08:06.088Z,48.93
2019-02-03T04:11:06.075Z,49.27
2019-02-03T04:14:21.744Z,55.52
2019-02-03T04:17:20.387Z,49.73
2019-02-03T04:20:01.477Z,49.90
2019-02-03T04:22:49.681Z,51.57
2019-02-03T04:26:05.429Z,47.30
2019-02-03T04:29:23.665Z,48.40
2019-02-03T04:32:01.785Z,48.97
2019-02-03T04:34:54.205Z,47.33
2019-02-03T04:37:47.915Z,47.47
2019-02-03T04:41:07.283Z,47.70
2019-02-03T04:44:13.240Z,43.20
2019-02-03T04:50:37.745Z,56.13
2019-02-03T04:56:43.435Z,46.63
2019-02-03T04:59:49.287Z,44.93
2019-02-03T05:05:55.081Z,44.80
2019-02-03T05:08:39.559Z,44.10
2019-02-03T05:11:43.437Z,44.00
2019-02-03T05:17:58.130Z,44.33
2019-02-03T05:20:58.815Z,43.70
2019-02-03T05:24:07.919Z,42.40
2019-02-03T05:27:18.094Z,41.20
2019-02-03T05:40:50.791Z,39.17
2019-02-03T05:43:47.016Z,41.77
2019-02-03T05:47:15.819Z,42.13
2019-02-03T05:51:11.745Z,46.37
2019-02-03T06:08:44.153Z,38.40
2019-02-03T06:11:46.349Z,37.37
2019-02-03T06:18:41.281Z,35.33
2019-02-03T06:22:08.463Z,37.73
2019-02-03T06:25:02.955Z,37.53
2019-02-03T06:28:00.983Z,37.60
2019-02-03T06:34:34.469Z,36.05
2019-02-03T06:37:28.446Z,34.03
2019-02-03T06:40:43.181Z,35.20
2019-02-03T06:43:58.137Z,34.27
2019-02-03T06:50:21.743Z,31.00
2019-02-03T06:56:56.661Z,33.20
2019-02-03T07:00:37.277Z,33.57
2019-02-03T07:03:18.795Z,33.33
2019-02-03T07:06:46.836Z,34.40
2019-02-03T07:09:40.687Z,39.70
2019-02-03T07:12:50.706Z,35.70
2019-02-03T07:15:43.959Z,33.93
2019-02-03T07:19:11.665Z,35.00
2019-02-03T07:25:53.586Z,36.13
2019-02-03T07:29:12.900Z,35.63
2019-02-03T07:32:21.230Z,35.37
2019-02-03T07:35:40.401Z,34.43
2019-02-03T07:38:27.978Z,35.00
2019-02-03T07:42:00.406Z,33.50
2019-02-03T07:45:40.543Z,31.00
2019-02-03T07:49:20.405Z,31.27
2019-02-03T07:52:29.722Z,29.87
2019-02-03T07:58:50.993Z,28.17
2019-02-03T08:02:19.151Z,30.80
2019-02-03T08:05:15.977Z,30.80
2019-02-03T08:08:25.547Z,30.35
2019-02-03T08:11:13.480Z,25.63
2019-02-03T08:14:18.791Z,26.63
2019-02-03T08:20:11.027Z,22.77
2019-02-03T08:23:47.190Z,26.43
2019-02-03T08:26:42.435Z,23.67
2019-02-03T08:33:12.117Z,21.67
2019-02-03T08:36:20.696Z,19.93
2019-02-03T08:39:33.232Z,21.53
2019-02-03T08:42:36.152Z,21.87
2019-02-03T08:42:55.704Z,19.90
2019-02-03T08:46:19.882Z,17.97
2019-02-03T08:49:30.356Z,17.93
2019-02-03T08:58:42.126Z,13.57
2019-02-03T09:02:00.936Z,14.23
2019-02-03T09:04:57.189Z,13.60
2019-02-03T09:11:59.123Z,12.50
2019-02-03T09:15:14.643Z,11.60
2019-02-03T09:18:08.629Z,11.10
2019-02-03T09:21:02.588Z,12.00
2019-02-03T09:24:34.631Z,10.73
2019-02-03T09:27:35.765Z,13.43
2019-02-03T09:30:50.215Z,11.30
2019-02-03T09:34:30.094Z,10.80
2019-02-03T09:40:47.639Z,9.33
2019-02-03T09:44:08.094Z,9.10
2019-02-03T09:47:34.831Z,9.00
2019-02-03T09:50:28.198Z,6.67
2019-02-03T09:53:23.553Z,9.17
2019-02-03T09:56:39.015Z,9.30
2019-02-03T10:00:08.422Z,8.37
2019-02-03T10:08:06.526Z,10.03
2019-02-03T10:19:39.268Z,7.17
2019-02-03T10:26:44.419Z,7.27
2019-02-03T10:37:52.152Z,5.20
2019-02-03T10:49:15.053Z,6.92
2019-02-03T10:59:59.076Z,6.00
2019-02-03T11:02:54.147Z,6.15
2019-02-03T11:06:20.339Z,4.93
2019-02-03T11:13:26.101Z,4.53
2019-02-03T11:42:26.921Z,5.17
2019-02-03T11:53:23.274Z,8.43
2019-02-03T12:01:38.971Z,8.17
2019-02-03T12:36:32.199Z,4.57
2019-02-03T12:43:35.103Z,4.87
2019-02-03T13:54:41.501Z,6.35
2019-02-03T14:38:58.402Z,4.12
2019-02-03T14:53:10.388Z,4.13
2019-02-03T14:59:06.229Z,4.40
2019-02-03T19:40:40.590Z,10.73
2019-02-03T19:52:01.403Z,11.40
2019-02-03T20:02:51.957Z,9.23
2019-02-03T20:22:22.158Z,5.60
2019-02-03T20:25:44.417Z,6.60
2019-02-03T20:31:29.760Z,6.43
2019-02-03T20:32:49.830Z,5.60
2019-02-03T21:02:44.948Z,9.23
2019-02-03T21:21:52.621Z,9.00
2019-02-03T21:33:14.907Z,11.90
2019-02-03T21:36:40.168Z,11.63
2019-02-03T21:40:21.834Z,10.47
2019-02-03T21:46:47.685Z,11.60
2019-02-03T21:49:48.923Z,12.63
2019-02-03T21:52:49.815Z,10.90
2019-02-03T21:55:45.515Z,9.53
2019-02-03T22:08:33.326Z,12.20
2019-02-03T22:19:27.757Z,12.17
2019-02-03T22:23:42.970Z,8.87
2019-02-03T22:25:53.694Z,11.57
2019-02-03T22:29:07.568Z,10.60
2019-02-03T22:32:08.884Z,11.30
2019-02-03T22:35:33.221Z,10.70
2019-02-03T22:38:31.657Z,11.67
2019-02-03T22:45:13.415Z,11.33
2019-02-03T22:52:09.955Z,10.07
2019-02-03T22:55:11.743Z,11.53
2019-02-03T23:01:38.798Z,10.77
2019-02-03T23:04:39.616Z,9.40
2019-02-03T23:07:51.207Z,10.00
2019-02-03T23:14:11.096Z,11.20
2019-02-03T23:17:01.288Z,9.90
2019-02-03T23:19:33.234Z,11.40
2019-02-03T23:22:21.464Z,11.53
2019-02-03T23:25:22.338Z,11.40
2019-02-03T23:28:10.828Z,10.80
2019-02-03T23:33:59.910Z,14.27
2019-02-03T23:36:57.462Z,12.27
2019-02-03T23:39:35.435Z,11.90
2019-02-03T23:46:01.458Z,11.30
2019-02-03T23:48:40.299Z,12.93
2019-02-03T23:51:16.800Z,13.18
2019-02-03T23:54:16.203Z,11.23
2019-02-03T23:56:58.468Z,12.40
